Pagrindinis puslapis
METAR-TAF:

METAR-TAF

Oro uostai :

Diego Garsija, Indijos Vandenyno Britų Sritis

platuma: 07-18S, ilguma: 072-24E, Aukštis: 1 m

Dabartinis oras

Ataskaita buvo paskelbta 54 minutes, ne 01:55 UTC
Vėjas 5 kt iš Pietų/Pietryčių
Temperatūra 28°C
Drėgmė 84%
Slėgis 1012 hPa
Matomumas 10 km arba daugiau
Mažai debesys ne aukštis 2000 ft

METAR: FJDG 220155Z 15005KT 9999 FEW020 28/25 A2989 RMK SLP119 T02780248

Laikas: 08:49 (02:49 UTC)

Prognozė

Ataskaita buvo paskelbta 1 valandą ir 49 minutes, ne 01:00 UTC
Prognozė galioja nuo 22 metu 01 UTC su 23 metu 07 UTC
Vėjas 6 kt nuo kintamojo kryptimis
Matomumas 10 km arba daugiau
Išsisklaidę debesys ne aukštis 3000 ft
Laikinai
nuo 23 metu 01 UTC su 23 metu 07 UTC
Matomumas: 8000 m
Su prošvaistėmis ne aukštis 4000 ft
lietus

TAF: FJDG 220100Z 2201/2307 VRB06KT 9999 SCT030 QNH2981INS TEMPO 2301/2307 8000 -SHRA BKN040 TX34/2209Z TN27/2222Z

Orai ataskaitas ir orų prognozės (METAR, TAF).

turimą stotys yra geltonos ir raudonos taškus žemėlapyje.

Perkelti pele per norėdami pamatyti stoties vardą.

Tada spustelėkite, norėdami matyti oro stebėjimo ir prognozės.

Norėdami pakeisti žemėlapį: spustelėkite ant žalios mygtukų su juodo kryžiaus žemyn,; žalią mygtuką su brūkšneliu, jei norite nutolinti; arba žalių rodyklių gretimoms žemėlapius.


METAR-TAF: